Skip Navigation Links
NOAA logo - Click to go to the NOAA homepage
NOAA's National Weather Service
Alaska Aviation Weather Unit
  NWS logo - Click to go to the NWS homepage
Left Navbar Graphic     22 AKDT = 06 GMT

   
NOAA is celebrating 200 years of science, service, and stewardship. Visit the NOAA 200th celebration Web site to learn more.
USA.gov is the U.S. Government's official Web portal to all Federal, state and local government Web resources and services.
Facebook
NWS on Facebook

Important Change Regarding the AAWU Web Presence

 

Over the last several months, the AAWU has been working to navigate its webpages to a nationally supported server. Security, as well as other needs, have necessitated the change.  In the process, we have made an effort to enhance the functionality of our website, as well as some of our products. As of June 20, 2017, aawu.arh.noaa.gov will be discontinued. The new AAWU web address is weather.gov/aawu. It is now live and will run in-parallel with the old site until it is discontinued. Please send any feedback or questions regarding the new webpages to nws.ar.aawu.webauthors@noaa.gov.  Thank you for your patience during this time of transition.
AAWU Home :: Display TAF Add Bookmark
TESTM WHMA2 280020Z AUTO 10011KT OVC019 05/02 A3017 RMK A02 SLP217 T00500021

TESTM WHMA2 280050Z AUTO 1107KT OVC022 05/02 A3017 RMK A02 SLP215 P0011 T00510025

TESTM WHMA2 280120Z AUTO 1009KT OVC022 05/03 A3016 RMK A02 SLP213 T00500027

TESTM WHMA2 280150Z AUTO 10010KT OVC024 05/02 A3016 RMK A02 SLP213 P0014 T00520025

TESTM WHMA2 280220Z AUTO 1306KT OVC018 05/03 A3016 RMK A02 SLP214 T00480026

TESTM WHMA2 280250Z AUTO 1009KT OVC016 05/02 A3015 RMK A02 SLP210 P0022 T00460022

TESTM WHMA2 280320Z AUTO 1107KT OVC016 04/02 A3015 RMK A02 SLP208 T00450023

TESTM WHMA2 280350Z AUTO 1206KT OVC014 04/03 A3014 RMK A02 SLP205 P0018 T00450028

TESTM WHMA2 280420Z AUTO 09012KT OVC020 05/03 A3014 RMK A02 SLP207 T00460027

TESTM WHMA2 280450Z AUTO 07020KT BKN014 05/03 A3014 RMK A02 SLP206 P0016 T00490026

TESTM WHMA2 280520Z AUTO 06016KT OVC014 05/03 A3014 RMK A02 SLP205 T00520033

TESTM WHMA2 280550Z AUTO 06022KT OVC014 05/03 A3014 RMK A02 SLP205 P0013 T00480026 PK WND 00027/0000

TESTM WHMA2 280620Z AUTO 07016KT OVC015 05/02 A3014 RMK A02 SLP206 T00470020 PK WND 00027/0000


NOAA's National Weather Service
Alaska Aviation Weather Unit
6930 Sand Lake Road
Anchorage, AK 99502-1845
Disclaimer
Credits
Glossary
Privacy Policy
About Us
Career Opportunities
Contact AAWU Internet Services Site last modified: April, 17th 2012